Riverview, Missouri
Current Conditions -  °F | °C
As of 6:51 AM on Thursday 27 Nov 2014 (Local Time) from KSTL Reporting Station
Haze Haze  
Wind Chill: 21°   Ceiling: 1600
Heat Index: 31°   Visibility: 6mi
Dew Point: 25°   Wind: 13mph
Humidity: 79%   Direction: 310°NW
Pressure: 30.42"   Gusts: NA
Location:  38.7508°N, 90.2149°W
Report Text: KSTL 271251Z 31011KT 6SM HZ OVC016 M01/M04 A3042 RMK AO2 SLP312 T10061039
Loading
Personal Weather Stations






























Interactive Weather Map New forecast layout! Learn more

10-Day Weather Forecast

Advertisements
Track Severe Weather on mobile